Terminal Aerodrome Forecast
Issued by NWS Greer, SC

Home | Current Version | Previous Version | Text Only | Print | Product List | Glossary On
Versions: 1 2 3 4 5 6 7 8 9 10 11 12 13 14 15 16 17 18 19 20 21 22 23
000
FTUS42 KGSP 061127
TAFGSP
TAF
KGSP 061127Z 0612/0712 24006KT P6SM SCT040 BKN250
     FM061900 24006KT P6SM VCTS SCT040CB BKN050
     FM062300 24004KT P6SM SCT090
     FM070400 00000KT P6SM FEW050 SCT200=

USA.gov is the U.S. government's official web portal to all federal, state and local government web resources and services.